createdAt,value
2018-03-07T00:02:01.887Z,97.10
2018-03-07T00:04:05.484Z,77.93
2018-03-07T00:06:09.034Z,71.17
2018-03-07T00:08:13.438Z,80.93
2018-03-07T00:10:16.999Z,73.17
2018-03-07T00:12:20.477Z,79.53
2018-03-07T00:14:24.056Z,85.00
2018-03-07T00:16:28.352Z,78.33
2018-03-07T00:18:31.864Z,64.77
2018-03-07T00:20:36.212Z,60.73
2018-03-07T00:22:39.758Z,59.40
2018-03-07T00:24:43.344Z,68.43
2018-03-07T00:26:46.906Z,69.97
2018-03-07T00:28:50.407Z,67.23
2018-03-07T00:30:54.070Z,68.03
2018-03-07T00:32:57.599Z,72.27
2018-03-07T00:35:01.221Z,73.83
2018-03-07T00:37:04.725Z,71.43
2018-03-07T00:39:08.261Z,72.23
2018-03-07T00:41:11.862Z,59.73
2018-03-07T00:43:15.416Z,69.57
2018-03-07T00:45:19.704Z,60.40
2018-03-07T00:47:23.300Z,64.13
2018-03-07T00:49:26.815Z,67.53
2018-03-07T00:51:30.333Z,73.23
2018-03-07T00:53:34.700Z,75.93
2018-03-07T00:55:38.225Z,73.03
2018-03-07T00:57:41.754Z,71.03
2018-03-07T00:59:45.305Z,70.07
2018-03-07T01:01:48.853Z,70.47
2018-03-07T01:03:52.364Z,72.00
2018-03-07T01:05:56.869Z,65.63
2018-03-07T01:08:00.412Z,68.90
2018-03-07T01:10:04.236Z,64.60
2018-03-07T01:12:07.862Z,68.20
2018-03-07T01:14:11.396Z,74.37
2018-03-07T01:16:16.072Z,71.97
2018-03-07T01:18:19.641Z,73.67
2018-03-07T01:20:23.162Z,64.80
2018-03-07T01:22:26.750Z,67.97
2018-03-07T01:24:30.325Z,67.97
2018-03-07T01:26:34.652Z,75.17
2018-03-07T01:28:39.002Z,68.10
2018-03-07T01:30:42.577Z,75.80
2018-03-07T01:32:46.131Z,66.63
2018-03-07T01:34:49.643Z,77.80
2018-03-07T01:36:53.996Z,74.30
2018-03-07T01:38:57.522Z,77.83
2018-03-07T01:41:01.110Z,87.03
2018-03-07T01:43:04.692Z,83.40
2018-03-07T01:45:08.261Z,80.90
2018-03-07T01:47:11.830Z,74.93
2018-03-07T01:49:15.406Z,80.23
2018-03-07T01:51:19.799Z,76.60
2018-03-07T01:53:24.150Z,77.33
2018-03-07T01:55:27.751Z,70.23
2018-03-07T01:57:31.278Z,79.53
2018-03-07T01:59:34.821Z,74.27
2018-03-07T02:01:38.417Z,74.20
2018-03-07T02:03:41.960Z,81.07
2018-03-07T02:05:45.562Z,67.97
2018-03-07T02:07:49.101Z,72.33
2018-03-07T02:09:52.689Z,65.73
2018-03-07T02:11:56.234Z,69.33
2018-03-07T02:13:59.770Z,74.60
2018-03-07T02:16:03.306Z,96.23
2018-03-07T02:18:07.584Z,83.37
2018-03-07T02:20:11.133Z,86.80
2018-03-07T02:22:15.872Z,87.57
2018-03-07T02:24:20.783Z,82.33
2018-03-07T02:26:24.282Z,81.13
2018-03-07T02:28:28.610Z,88.67
2018-03-07T02:30:32.178Z,82.17
2018-03-07T02:32:36.470Z,90.30
2018-03-07T02:34:40.018Z,87.77
2018-03-07T02:36:43.549Z,85.30
2018-03-07T02:38:47.102Z,81.30
2018-03-07T02:40:50.676Z,85.00
2018-03-07T02:42:55.042Z,78.67
2018-03-07T02:44:59.439Z,70.00
2018-03-07T02:47:11.620Z,79.57
2018-03-07T02:49:17.077Z,78.80
2018-03-07T02:51:20.600Z,84.90
2018-03-07T02:53:24.156Z,79.03
2018-03-07T02:55:28.429Z,76.37
2018-03-07T02:57:31.934Z,81.17
2018-03-07T02:59:36.288Z,88.07
2018-03-07T03:01:39.864Z,87.50
2018-03-07T03:03:44.203Z,83.87
2018-03-07T03:05:47.806Z,76.57
2018-03-07T03:07:51.309Z,89.23
2018-03-07T03:09:54.837Z,102.20
2018-03-07T03:11:58.411Z,110.50
2018-03-07T03:14:01.947Z,102.83
2018-03-07T03:16:05.566Z,103.50
2018-03-07T03:18:09.162Z,96.73
2018-03-07T03:20:12.710Z,97.03
2018-03-07T03:22:16.237Z,99.13
2018-03-07T03:24:20.530Z,102.73
2018-03-07T03:26:24.034Z,103.23
2018-03-07T03:28:28.369Z,94.63
2018-03-07T03:30:31.913Z,101.10
2018-03-07T03:32:35.479Z,111.97
2018-03-07T03:34:39.038Z,106.73
2018-03-07T03:36:43.367Z,103.63
2018-03-07T03:38:46.923Z,105.70
2018-03-07T03:40:50.474Z,100.10
2018-03-07T03:42:54.004Z,110.33
2018-03-07T03:44:57.555Z,102.33
2018-03-07T03:47:01.381Z,105.70
2018-03-07T03:49:05.777Z,114.10
2018-03-07T03:51:09.305Z,116.93
2018-03-07T03:53:12.906Z,98.20
2018-03-07T03:55:16.464Z,96.67
2018-03-07T03:57:20.029Z,110.20
2018-03-07T03:59:23.588Z,97.87
2018-03-07T04:01:27.138Z,92.03
2018-03-07T04:03:30.748Z,94.97
2018-03-07T04:05:34.345Z,106.13
2018-03-07T04:07:37.875Z,110.30
2018-03-07T04:09:41.441Z,96.13
2018-03-07T04:11:44.946Z,96.50
2018-03-07T04:13:48.478Z,103.17
2018-03-07T04:15:52.833Z,92.83
2018-03-07T04:17:57.144Z,97.07
2018-03-07T04:20:00.708Z,88.93
2018-03-07T04:22:05.031Z,94.77
2018-03-07T04:24:09.342Z,93.03
2018-03-07T04:26:12.916Z,95.37
2018-03-07T04:28:16.446Z,95.37
2018-03-07T04:30:20.791Z,103.53
2018-03-07T04:32:24.360Z,102.83
2018-03-07T04:34:28.662Z,101.57
2018-03-07T04:36:33.000Z,95.20
2018-03-07T04:38:36.535Z,104.87
2018-03-07T04:40:40.101Z,97.93
2018-03-07T04:42:43.662Z,98.80
2018-03-07T04:44:47.999Z,108.80
2018-03-07T04:46:51.510Z,108.13
2018-03-07T04:48:55.078Z,101.93
2018-03-07T04:50:58.624Z,101.03
2018-03-07T04:53:02.203Z,97.27
2018-03-07T04:55:05.732Z,93.10
2018-03-07T04:57:09.269Z,86.40
2018-03-07T04:59:12.788Z,94.77
2018-03-07T05:01:16.330Z,86.43
2018-03-07T05:03:19.860Z,86.80
2018-03-07T05:05:23.422Z,94.90
2018-03-07T05:07:27.782Z,92.97
2018-03-07T05:09:31.318Z,97.40
2018-03-07T05:11:34.901Z,93.60
2018-03-07T05:13:38.458Z,102.40
2018-03-07T05:15:42.008Z,109.57
2018-03-07T05:17:45.579Z,101.83
2018-03-07T05:19:49.144Z,111.33
2018-03-07T05:21:52.680Z,110.83
2018-03-07T05:23:56.207Z,103.23
2018-03-07T05:26:00.565Z,104.70
2018-03-07T05:28:04.221Z,106.40
2018-03-07T05:30:07.769Z,103.90
2018-03-07T05:32:11.320Z,103.93
2018-03-07T05:34:14.901Z,117.57
2018-03-07T05:36:19.211Z,97.73
2018-03-07T05:38:22.738Z,106.90
2018-03-07T05:40:26.339Z,101.60
2018-03-07T05:42:29.893Z,102.07
2018-03-07T05:44:33.415Z,102.43
2018-03-07T05:46:37.743Z,99.27
2018-03-07T05:48:41.257Z,91.23
2018-03-07T05:50:44.784Z,83.70
2018-03-07T05:52:48.393Z,86.13
2018-03-07T05:54:52.124Z,93.23
2018-03-07T05:56:55.860Z,92.03
2018-03-07T05:58:59.661Z,88.73
2018-03-07T06:01:03.389Z,83.13
2018-03-07T06:03:06.918Z,85.90
2018-03-07T06:05:10.437Z,86.67
2018-03-07T06:07:14.008Z,86.50
2018-03-07T06:09:18.310Z,91.03
2018-03-07T06:11:22.589Z,97.17
2018-03-07T06:13:26.150Z,90.37
2018-03-07T06:15:29.651Z,97.57
2018-03-07T06:17:33.207Z,92.03
2018-03-07T06:19:37.068Z,94.80
2018-03-07T06:21:40.647Z,102.37
2018-03-07T06:23:44.197Z,95.27
2018-03-07T06:25:47.789Z,86.90
2018-03-07T06:27:52.106Z,92.43
2018-03-07T06:29:55.661Z,85.27
2018-03-07T06:31:59.208Z,91.40
2018-03-07T06:34:03.493Z,97.73
2018-03-07T06:36:06.989Z,94.60
2018-03-07T06:38:10.541Z,91.23
2018-03-07T06:40:14.134Z,100.67
2018-03-07T06:42:17.812Z,108.50
2018-03-07T06:44:21.348Z,111.33
2018-03-07T06:46:24.933Z,110.37
2018-03-07T06:48:28.539Z,102.90
2018-03-07T06:50:32.117Z,107.90
2018-03-07T06:52:35.747Z,99.57
2018-03-07T06:54:39.334Z,97.50
2018-03-07T06:56:42.907Z,115.93
2018-03-07T06:58:46.510Z,117.10
2018-03-07T07:00:50.113Z,104.37
2018-03-07T07:02:53.735Z,120.73
2018-03-07T07:04:57.313Z,111.50
2018-03-07T07:07:00.939Z,114.03
2018-03-07T07:09:04.580Z,113.23
2018-03-07T07:11:08.143Z,112.20
2018-03-07T07:13:11.733Z,112.33
2018-03-07T07:15:15.274Z,115.47
2018-03-07T07:17:18.840Z,114.57
2018-03-07T07:19:23.221Z,108.17
2018-03-07T07:21:26.771Z,120.67
2018-03-07T07:23:30.348Z,118.73
2018-03-07T07:25:34.653Z,122.57
2018-03-07T07:27:38.187Z,122.40
2018-03-07T07:29:41.746Z,126.03
2018-03-07T07:31:45.276Z,127.23
2018-03-07T07:33:48.880Z,116.17
2018-03-07T07:35:52.469Z,118.13
2018-03-07T07:37:56.650Z,113.20
2018-03-07T07:40:01.496Z,124.77
2018-03-07T07:42:05.106Z,107.37
2018-03-07T07:44:08.624Z,108.57
2018-03-07T07:46:12.235Z,118.53
2018-03-07T07:48:15.766Z,112.07
2018-03-07T07:50:20.454Z,124.73
2018-03-07T07:52:24.074Z,116.90
2018-03-07T07:54:30.069Z,121.10
2018-03-07T07:56:33.654Z,115.23
2018-03-07T07:58:38.115Z,118.83
2018-03-07T08:00:41.675Z,128.13
2018-03-07T08:02:45.312Z,129.90
2018-03-07T08:04:48.817Z,127.20
2018-03-07T08:06:52.307Z,119.17
2018-03-07T08:08:56.068Z,121.50
2018-03-07T08:10:59.604Z,115.10
2018-03-07T08:13:03.232Z,117.53
2018-03-07T08:15:07.546Z,123.10
2018-03-07T08:17:11.071Z,118.20
2018-03-07T08:19:14.618Z,125.93
2018-03-07T08:21:18.150Z,126.53
2018-03-07T08:23:21.748Z,121.23
2018-03-07T08:25:25.306Z,125.60
2018-03-07T08:27:29.637Z,119.80
2018-03-07T08:29:33.950Z,128.00
2018-03-07T08:31:38.326Z,122.77
2018-03-07T08:33:41.901Z,117.30
2018-03-07T08:35:46.271Z,122.80
2018-03-07T08:37:49.816Z,115.87
2018-03-07T08:39:53.368Z,122.33
2018-03-07T08:41:57.680Z,126.67
2018-03-07T08:44:01.980Z,117.27
2018-03-07T08:46:05.608Z,128.50
2018-03-07T08:48:09.208Z,119.87
2018-03-07T08:50:12.746Z,120.23
2018-03-07T08:52:16.328Z,117.57
2018-03-07T08:54:19.861Z,118.10
2018-03-07T08:56:23.452Z,114.60
2018-03-07T08:58:26.987Z,114.57
2018-03-07T09:00:30.487Z,126.50
2018-03-07T09:02:34.049Z,120.30
2018-03-07T09:04:37.598Z,119.60
2018-03-07T09:06:41.127Z,125.27
2018-03-07T09:08:44.712Z,117.20
2018-03-07T09:10:48.230Z,118.90
2018-03-07T09:12:52.532Z,129.13
2018-03-07T09:14:56.110Z,121.23
2018-03-07T09:17:00.478Z,123.63
2018-03-07T09:19:04.048Z,122.77
2018-03-07T09:21:07.653Z,115.37
2018-03-07T09:23:12.002Z,131.47
2018-03-07T09:25:15.523Z,116.00
2018-03-07T09:27:19.106Z,124.13
2018-03-07T09:29:22.774Z,120.97
2018-03-07T09:31:26.330Z,127.27
2018-03-07T09:33:29.881Z,125.33
2018-03-07T09:35:33.381Z,121.77
2018-03-07T09:37:36.970Z,125.13
2018-03-07T09:39:40.501Z,121.10
2018-03-07T09:41:44.838Z,125.50
2018-03-07T09:43:48.528Z,118.37
2018-03-07T09:45:52.112Z,117.70
2018-03-07T09:47:55.663Z,119.43
2018-03-07T09:49:59.220Z,122.40
2018-03-07T09:52:02.804Z,125.00
2018-03-07T09:54:06.336Z,118.13
2018-03-07T09:56:10.723Z,120.37
2018-03-07T09:58:14.288Z,114.20
2018-03-07T10:00:17.846Z,124.00
2018-03-07T10:02:21.430Z,108.20
2018-03-07T10:04:25.713Z,119.03
2018-03-07T10:06:29.193Z,115.57
2018-03-07T10:08:32.764Z,119.07
2018-03-07T10:10:36.311Z,122.67
2018-03-07T10:12:39.820Z,117.97
2018-03-07T10:14:43.377Z,122.03
2018-03-07T10:16:46.928Z,117.90
2018-03-07T10:18:50.507Z,120.80
2018-03-07T10:20:54.784Z,122.57
2018-03-07T10:22:58.356Z,124.37
2018-03-07T10:25:01.920Z,118.27
2018-03-07T10:27:05.492Z,123.20
2018-03-07T10:29:11.389Z,120.37
2018-03-07T10:31:15.813Z,124.17
2018-03-07T10:33:24.899Z,116.30
2018-03-07T10:35:29.195Z,121.43
2018-03-07T10:37:32.785Z,117.13
2018-03-07T10:39:36.331Z,126.13
2018-03-07T10:41:39.826Z,117.27
2018-03-07T10:43:43.424Z,119.33
2018-03-07T10:45:46.970Z,117.93
2018-03-07T10:47:51.296Z,125.93
2018-03-07T10:49:54.901Z,110.73
2018-03-07T10:51:59.186Z,119.73
2018-03-07T10:54:02.718Z,117.40
2018-03-07T10:56:07.116Z,118.27
2018-03-07T10:58:10.688Z,118.77
2018-03-07T11:00:14.311Z,125.80
2018-03-07T11:02:17.892Z,129.27
2018-03-07T11:04:21.462Z,125.23
2018-03-07T11:06:25.018Z,126.40
2018-03-07T11:08:28.587Z,121.93
2018-03-07T11:10:32.125Z,123.37
2018-03-07T11:12:35.728Z,126.47
2018-03-07T11:14:39.305Z,124.00
2018-03-07T11:16:43.682Z,118.43
2018-03-07T11:18:47.202Z,114.17
2018-03-07T11:20:51.529Z,120.30
2018-03-07T11:22:55.845Z,115.70
2018-03-07T11:25:00.101Z,103.93
2018-03-07T11:27:03.683Z,120.60
2018-03-07T11:29:07.209Z,122.80
2018-03-07T11:31:10.736Z,119.83
2018-03-07T11:33:15.138Z,106.23
2018-03-07T11:35:18.670Z,128.20
2018-03-07T11:37:22.234Z,106.83
2018-03-07T11:39:26.623Z,122.67
2018-03-07T11:41:30.149Z,124.47
2018-03-07T11:43:34.429Z,118.30
2018-03-07T11:45:38.024Z,118.63
2018-03-07T11:47:41.536Z,123.40
2018-03-07T11:49:45.055Z,90.10
2018-03-07T11:51:49.377Z,129.93
2018-03-07T11:53:53.645Z,114.27
2018-03-07T11:55:57.238Z,120.03
2018-03-07T11:58:00.776Z,126.33
2018-03-07T12:00:05.821Z,124.03
2018-03-07T12:02:09.406Z,125.87
2018-03-07T12:04:12.909Z,127.33
2018-03-07T12:06:16.436Z,119.30
2018-03-07T12:08:19.961Z,117.40
2018-03-07T12:10:23.485Z,122.27
2018-03-07T12:12:28.151Z,117.93
2018-03-07T12:14:31.690Z,116.53
2018-03-07T12:16:35.241Z,123.53
2018-03-07T12:18:38.799Z,119.97
2018-03-07T12:20:42.358Z,118.87
2018-03-07T12:22:46.148Z,126.17
2018-03-07T12:24:49.712Z,115.73
2018-03-07T12:26:53.306Z,119.73
2018-03-07T12:28:56.873Z,112.53
2018-03-07T12:31:01.175Z,106.80
2018-03-07T12:33:04.798Z,109.03
2018-03-07T12:35:08.365Z,109.70
2018-03-07T12:37:12.683Z,115.70
2018-03-07T12:39:16.291Z,117.47
2018-03-07T12:41:19.786Z,107.67
2018-03-07T12:43:23.337Z,110.20
2018-03-07T12:45:26.940Z,108.50
2018-03-07T12:47:30.580Z,102.57
2018-03-07T12:49:34.904Z,104.73
2018-03-07T12:51:38.489Z,106.17
2018-03-07T12:53:42.060Z,95.30
2018-03-07T12:55:45.604Z,97.27
2018-03-07T12:57:49.192Z,92.60
2018-03-07T12:59:52.715Z,96.33
2018-03-07T13:01:57.060Z,99.37
2018-03-07T13:04:01.384Z,97.33
2018-03-07T13:06:04.905Z,94.77
2018-03-07T13:08:08.471Z,87.10
2018-03-07T13:10:12.024Z,99.83
2018-03-07T13:12:15.583Z,92.43
2018-03-07T13:14:19.925Z,103.83
2018-03-07T13:16:23.515Z,83.53
2018-03-07T13:18:27.103Z,94.17
2018-03-07T13:20:30.664Z,91.63
2018-03-07T13:22:35.036Z,87.67
2018-03-07T13:24:38.660Z,95.70
2018-03-07T13:26:42.192Z,95.30
2018-03-07T13:28:46.491Z,92.97
2018-03-07T13:30:50.831Z,96.03
2018-03-07T13:32:54.420Z,93.67
2018-03-07T13:34:58.083Z,67.40
2018-03-07T13:37:01.583Z,91.07
2018-03-07T13:39:05.927Z,81.47
2018-03-07T13:41:09.519Z,98.47
2018-03-07T13:43:13.105Z,82.07
2018-03-07T13:45:17.418Z,85.20
2018-03-07T13:47:21.696Z,101.77
2018-03-07T13:49:25.287Z,91.90
2018-03-07T13:51:28.835Z,80.93
2018-03-07T13:53:33.133Z,91.53
2018-03-07T13:55:36.720Z,95.37
2018-03-07T13:57:41.000Z,87.37
2018-03-07T13:59:45.280Z,83.57
2018-03-07T14:01:48.847Z,92.70
2018-03-07T14:03:53.246Z,84.43
2018-03-07T14:05:56.772Z,86.83
2018-03-07T14:08:01.337Z,79.23
2018-03-07T14:10:06.241Z,83.32
2018-03-07T14:12:09.793Z,84.60
2018-03-07T14:14:13.380Z,80.67
2018-03-07T14:16:16.963Z,82.20
2018-03-07T14:18:20.511Z,76.27
2018-03-07T14:20:24.162Z,74.50
2018-03-07T14:22:27.658Z,89.57
2018-03-07T14:24:31.180Z,82.63
2018-03-07T14:26:34.797Z,69.73
2018-03-07T14:28:39.062Z,78.23
2018-03-07T14:30:42.682Z,81.53
2018-03-07T14:32:46.215Z,83.20
2018-03-07T14:34:49.802Z,83.53
2018-03-07T14:36:53.372Z,86.10
2018-03-07T14:38:57.663Z,80.73
2018-03-07T14:41:01.241Z,72.73
2018-03-07T14:43:04.817Z,81.77
2018-03-07T14:45:08.319Z,72.73
2018-03-07T14:47:11.917Z,79.20
2018-03-07T14:49:15.446Z,76.23
2018-03-07T14:51:19.000Z,81.07
2018-03-07T14:53:22.519Z,87.10
2018-03-07T14:55:26.046Z,71.97
2018-03-07T14:57:30.377Z,67.70
2018-03-07T14:59:34.664Z,70.20
2018-03-07T15:01:38.172Z,72.13
2018-03-07T15:03:42.509Z,84.80
2018-03-07T15:05:46.771Z,82.20
2018-03-07T15:07:50.359Z,73.77
2018-03-07T15:09:53.873Z,80.60
2018-03-07T15:11:58.203Z,86.33
2018-03-07T15:14:03.007Z,82.40
2018-03-07T15:16:06.555Z,78.97
2018-03-07T15:18:11.106Z,81.10
2018-03-07T15:20:14.696Z,81.83
2018-03-07T15:22:18.257Z,79.90
2018-03-07T15:24:21.759Z,82.10
2018-03-07T15:26:25.451Z,83.60
2018-03-07T15:28:29.011Z,77.87
2018-03-07T15:30:32.525Z,82.73
2018-03-07T15:32:36.082Z,79.87
2018-03-07T15:34:40.415Z,82.40
2018-03-07T15:36:43.923Z,79.20
2018-03-07T15:38:48.246Z,83.57
2018-03-07T15:40:52.527Z,77.03
2018-03-07T15:42:56.126Z,73.50
2018-03-07T15:44:59.633Z,80.70
2018-03-07T15:47:03.164Z,67.37
2018-03-07T15:49:06.770Z,78.43
2018-03-07T15:51:10.290Z,80.93
2018-03-07T15:53:13.805Z,79.77
2018-03-07T15:55:17.407Z,81.20
2018-03-07T15:57:20.917Z,86.50
2018-03-07T15:59:25.270Z,82.57
2018-03-07T16:01:28.854Z,85.43
2018-03-07T16:03:32.372Z,84.67
2018-03-07T16:05:35.894Z,83.53
2018-03-07T16:07:39.477Z,87.83
2018-03-07T16:09:42.957Z,85.13
2018-03-07T16:13:51.897Z,89.27
2018-03-07T16:15:55.344Z,88.43
2018-03-07T16:17:59.541Z,75.73
2018-03-07T16:20:03.026Z,82.60
2018-03-07T16:22:06.502Z,85.03
2018-03-07T16:24:09.956Z,80.80
2018-03-07T16:26:13.422Z,79.33
2018-03-07T16:28:16.923Z,85.90
2018-03-07T16:30:21.129Z,81.97
2018-03-07T16:32:25.377Z,75.97
2018-03-07T16:34:28.929Z,80.43
2018-03-07T16:36:32.476Z,77.50
2018-03-07T16:38:35.996Z,83.83
2018-03-07T16:40:39.584Z,77.33
2018-03-07T16:42:43.682Z,84.43
2018-03-07T16:44:47.403Z,84.80
2018-03-07T16:46:50.950Z,82.10
2018-03-07T16:48:54.502Z,83.83
2018-03-07T16:50:58.072Z,81.70
2018-03-07T16:53:01.603Z,80.33
2018-03-07T16:55:06.005Z,82.68
2018-03-07T16:57:09.592Z,85.17
2018-03-07T16:59:13.094Z,81.23
2018-03-07T17:01:17.430Z,81.87
2018-03-07T17:03:20.990Z,79.17
2018-03-07T17:05:24.545Z,76.03
2018-03-07T17:07:28.080Z,82.43
2018-03-07T17:09:31.678Z,81.10
2018-03-07T17:11:35.186Z,82.83
2018-03-07T17:13:38.701Z,81.50
2018-03-07T17:15:42.236Z,84.40
2018-03-07T17:17:45.736Z,83.97
2018-03-07T17:19:50.096Z,86.37
2018-03-07T17:21:53.684Z,84.53
2018-03-07T17:23:58.036Z,80.67
2018-03-07T17:26:02.405Z,82.93
2018-03-07T17:28:06.094Z,81.37
2018-03-07T17:30:09.638Z,73.67
2018-03-07T17:32:13.262Z,88.33
2018-03-07T17:34:17.062Z,84.57
2018-03-07T17:36:20.617Z,86.37
2018-03-07T17:38:24.252Z,91.60
2018-03-07T17:40:27.768Z,85.67
2018-03-07T17:42:31.333Z,74.30
2018-03-07T17:44:34.924Z,71.43
2018-03-07T17:46:38.574Z,74.90
2018-03-07T17:48:42.073Z,73.90
2018-03-07T17:50:45.661Z,76.10
2018-03-07T17:52:49.260Z,83.07
2018-03-07T17:54:52.812Z,80.87
2018-03-07T17:56:56.463Z,74.97
2018-03-07T17:58:59.963Z,83.60
2018-03-07T18:01:03.514Z,82.00
2018-03-07T18:03:07.107Z,79.13
2018-03-07T18:05:10.651Z,85.63
2018-03-07T18:07:14.983Z,90.90
2018-03-07T18:09:19.361Z,92.77
2018-03-07T18:11:22.901Z,82.67
2018-03-07T18:13:27.269Z,81.17
2018-03-07T18:15:30.785Z,77.13
2018-03-07T18:17:34.407Z,73.73
2018-03-07T18:19:38.785Z,69.60
2018-03-07T18:21:42.335Z,73.73
2018-03-07T18:23:46.706Z,66.97
2018-03-07T18:25:50.248Z,83.37
2018-03-07T18:27:53.793Z,78.50
2018-03-07T18:29:57.401Z,78.27
2018-03-07T18:32:00.907Z,75.00
2018-03-07T18:34:05.233Z,74.50
2018-03-07T18:36:09.550Z,76.27
2018-03-07T18:38:13.149Z,70.17
2018-03-07T18:40:16.670Z,70.37
2018-03-07T18:42:20.184Z,82.70
2018-03-07T18:44:23.750Z,85.97
2018-03-07T18:46:27.354Z,78.47
2018-03-07T18:48:30.951Z,75.00
2018-03-07T18:50:34.511Z,78.40
2018-03-07T18:52:38.070Z,78.67
2018-03-07T18:54:41.630Z,74.10
2018-03-07T18:56:45.181Z,80.17
2018-03-07T18:58:48.687Z,74.57
2018-03-07T19:00:52.216Z,86.37
2018-03-07T19:02:55.791Z,77.67
2018-03-07T19:05:00.089Z,78.23
2018-03-07T19:07:04.447Z,87.73
2018-03-07T19:09:08.000Z,80.60
2018-03-07T19:11:12.611Z,85.37
2018-03-07T19:13:17.438Z,91.20
2018-03-07T19:15:21.760Z,92.57
2018-03-07T19:17:25.299Z,93.17
2018-03-07T19:19:28.923Z,82.37
2018-03-07T19:21:32.484Z,81.90
2018-03-07T19:23:36.024Z,94.07
2018-03-07T19:25:39.616Z,98.57
2018-03-07T19:27:43.159Z,108.93
2018-03-07T19:29:47.477Z,107.70
2018-03-07T19:31:50.970Z,115.57
2018-03-07T19:33:54.535Z,113.00
2018-03-07T19:35:58.058Z,111.60
2018-03-07T19:38:01.624Z,106.73
2018-03-07T19:40:06.040Z,109.68
2018-03-07T19:42:09.550Z,97.53
2018-03-07T19:44:13.116Z,111.77
2018-03-07T19:46:16.715Z,101.43
2018-03-07T19:48:20.226Z,106.57
2018-03-07T19:50:24.516Z,110.17
2018-03-07T19:52:28.068Z,115.40
2018-03-07T19:54:31.624Z,104.47
2018-03-07T19:56:35.113Z,105.87
2018-03-07T19:58:38.655Z,103.77
2018-03-07T20:00:42.203Z,104.37
2018-03-07T20:02:45.718Z,106.03
2018-03-07T20:04:49.273Z,106.97
2018-03-07T20:06:52.789Z,119.53
2018-03-07T20:08:56.313Z,112.40
2018-03-07T20:10:59.890Z,103.97
2018-03-07T20:13:03.459Z,111.93
2018-03-07T20:15:06.998Z,98.57
2018-03-07T20:17:10.560Z,100.73
2018-03-07T20:19:14.133Z,107.33
2018-03-07T20:21:17.704Z,95.67
2018-03-07T20:23:21.220Z,100.33
2018-03-07T20:25:25.508Z,104.37
2018-03-07T20:27:29.218Z,108.97
2018-03-07T20:29:32.767Z,109.63
2018-03-07T20:31:36.275Z,116.63
2018-03-07T20:33:40.617Z,112.20
2018-03-07T20:35:44.148Z,119.47
2018-03-07T20:37:47.695Z,111.33
2018-03-07T20:39:51.284Z,119.93
2018-03-07T20:41:54.782Z,117.53
2018-03-07T20:43:59.095Z,117.40
2018-03-07T20:46:03.434Z,115.27
2018-03-07T20:48:06.949Z,101.63
2018-03-07T20:50:10.550Z,108.40
2018-03-07T20:52:14.103Z,115.63
2018-03-07T20:54:17.606Z,112.13
2018-03-07T20:56:21.165Z,111.20
2018-03-07T20:58:24.788Z,115.27
2018-03-07T21:00:29.051Z,122.57
2018-03-07T21:02:33.436Z,109.03
2018-03-07T21:04:36.999Z,98.97
2018-03-07T21:06:41.293Z,116.97
2018-03-07T21:08:44.831Z,114.53
2018-03-07T21:10:48.376Z,112.17
2018-03-07T21:12:51.967Z,107.70
2018-03-07T21:14:56.326Z,110.17
2018-03-07T21:16:59.866Z,113.63
2018-03-07T21:19:03.411Z,119.57
2018-03-07T21:21:07.867Z,115.30
2018-03-07T21:23:12.313Z,106.03
2018-03-07T21:25:15.841Z,99.33
2018-03-07T21:27:20.175Z,109.07
2018-03-07T21:29:23.733Z,106.63
2018-03-07T21:31:28.034Z,106.03
2018-03-07T21:33:31.534Z,115.43
2018-03-07T21:35:35.873Z,106.33
2018-03-07T21:37:39.544Z,103.93
2018-03-07T21:39:43.097Z,109.93
2018-03-07T21:41:46.643Z,103.57
2018-03-07T21:43:50.939Z,112.30
2018-03-07T21:45:54.523Z,113.73
2018-03-07T21:47:58.069Z,112.33
2018-03-07T21:50:02.432Z,119.20
2018-03-07T21:52:06.046Z,107.97
2018-03-07T21:54:09.655Z,117.07
2018-03-07T21:56:13.984Z,114.17
2018-03-07T21:58:18.261Z,107.07
2018-03-07T22:00:21.816Z,107.97
2018-03-07T22:02:25.398Z,119.67
2018-03-07T22:04:29.014Z,118.70
2018-03-07T22:06:32.594Z,120.43
2018-03-07T22:08:36.125Z,114.10
2018-03-07T22:10:39.651Z,115.00
2018-03-07T22:12:43.250Z,118.23
2018-03-07T22:14:46.783Z,115.40
2018-03-07T22:16:50.353Z,115.23
2018-03-07T22:18:54.737Z,115.43
2018-03-07T22:20:58.407Z,116.03
2018-03-07T22:23:02.034Z,111.47
2018-03-07T22:25:05.637Z,121.60
2018-03-07T22:27:09.155Z,112.70
2018-03-07T22:29:13.436Z,112.90
2018-03-07T22:31:17.043Z,112.23
2018-03-07T22:33:20.589Z,110.17
2018-03-07T22:35:24.360Z,116.77
2018-03-07T22:37:27.954Z,106.50
2018-03-07T22:39:32.418Z,120.03
2018-03-07T22:41:37.008Z,124.20
2018-03-07T22:43:40.928Z,122.97
2018-03-07T22:45:44.559Z,110.17
2018-03-07T22:47:48.164Z,108.90
2018-03-07T22:49:52.206Z,112.20
2018-03-07T22:51:55.762Z,116.43
2018-03-07T22:53:59.569Z,123.40
2018-03-07T22:56:04.031Z,130.70
2018-03-07T22:58:09.207Z,121.67
2018-03-07T23:00:25.150Z,130.67
2018-03-07T23:02:30.002Z,126.93
2018-03-07T23:04:34.440Z,123.37
2018-03-07T23:06:37.957Z,117.30
2018-03-07T23:08:41.542Z,132.73
2018-03-07T23:10:45.132Z,127.97
2018-03-07T23:12:48.648Z,121.97
2018-03-07T23:14:52.283Z,125.83
2018-03-07T23:16:55.850Z,118.40
2018-03-07T23:19:00.182Z,128.17
2018-03-07T23:21:03.756Z,119.13
2018-03-07T23:23:07.239Z,127.13
2018-03-07T23:25:10.757Z,126.00
2018-03-07T23:27:14.342Z,109.57
2018-03-07T23:29:18.674Z,116.83
2018-03-07T23:31:22.224Z,125.97
2018-03-07T23:33:26.663Z,118.10
2018-03-07T23:35:30.984Z,115.93
2018-03-07T23:37:34.550Z,120.07
2018-03-07T23:39:38.114Z,119.83
2018-03-07T23:41:41.721Z,125.00
2018-03-07T23:43:45.254Z,123.90
2018-03-07T23:45:48.840Z,117.37
2018-03-07T23:47:52.363Z,120.03
2018-03-07T23:49:56.701Z,122.67
2018-03-07T23:52:00.216Z,123.27
2018-03-07T23:54:03.722Z,117.40
2018-03-07T23:56:07.256Z,116.03
2018-03-07T23:58:11.544Z,116.47
